Faneromeni — SVKG — position and weather

sailwx.info

Track history (hours):
 
Tides and Currents Weather Stations Pressure Air Temp Water Temp Dewpoint Dewpoint Depression Visibility Wind Speed Wind Dir Waves Ship Positions

Faneromeni

Last reported at 2018-Apr-16 19:59 UTC. Time now 2018-May-25 05:32 UTC.
Position N 49°16' W 004°49'.
Warning: this ship's position is 38 days out of date.

Length 230 m; draft 9.5 m.

Type: Ship. MMSI: 240576000.

Date/timePositionNaut miles runAvg speedWind from/ knotsBaromVisibWave heightAir tempDewpointWater temp
2018-Apr-16 19:59N 49°16' W 004°49'12 7.4
2018-Apr-16 18:23N 49°22' W 004°34'32 7.5
2018-Apr-16 14:04N 49°38' W 003°51'110.2
2018-Apr-16 13:55N 49°39' W 003°49'510.4
2018-Apr-16 13:27N 49°42' W 003°42'511.3
2018-Apr-16 13:00N 49°44' W 003°36'611.4
2018-Apr-16 12:30N 49°47' W 003°28'611.2
2018-Apr-16 12:00N 49°50' W 003°20'610.9
2018-Apr-16 11:26N 49°53' W 003°12'510.4
2018-Apr-16 11:00N 49°55' W 003°06'5 9.8
2018-Apr-16 10:30N 49°57' W 002°59'5 9.1
2018-Apr-16 10:00N 49°59' W 002°53'4 8.2
2018-Apr-16 09:29N 50°01' W 002°46'4 7.3
2018-Apr-16 09:00N 50°01' W 002°41'3 6.6
2018-Apr-16 08:31N 50°02' W 002°36'3 6.1
2018-Apr-16 07:59N 50°03' W 002°31'4 5.3
2018-Apr-16 07:18N 50°04' W 002°26'3 5.2
2018-Apr-16 06:43N 50°05' W 002°21'4 5.5
2018-Apr-16 05:58N 50°06' W 002°15'4 6.2
2018-Apr-16 05:15N 50°07' W 002°08'3 7.5
2018-Apr-16 04:55N 50°08' W 002°05'3 8.5
2018-Apr-16 04:31N 50°09' W 001°60'5 9.6
2018-Apr-16 04:00N 50°10' W 001°52'510.5
2018-Apr-16 03:30N 50°12' W 001°44'510.9
2018-Apr-16 03:00N 50°13' W 001°36'611.5
2018-Apr-16 02:30N 50°14' W 001°27'611.7
2018-Apr-16 02:01N 50°16' W 001°19'611.6
2018-Apr-16 01:31N 50°18' W 001°10'611.5
2018-Apr-16 01:00N 50°19' W 001°01'611.5
2018-Apr-16 00:30N 50°21' W 000°53'1710.2
2018-Apr-15 22:52N 50°25' W 000°27'3 9.2
2018-Apr-15 22:30N 50°26' W 000°22'4 8.7
2018-Apr-15 22:00N 50°27' W 000°16'4 8.2
2018-Apr-15 21:30N 50°28' W 000°09'4 7.8
2018-Apr-15 21:00N 50°29' W 000°04'4 7.9
2018-Apr-15 20:30N 50°30' E 000°02'4 8.0
2018-Apr-15 20:00N 50°31' E 000°09'4 8.4
2018-Apr-15 19:30N 50°32' E 000°15'5 9.1
2018-Apr-15 19:00N 50°34' E 000°22'5 9.3
2018-Apr-15 18:30N 50°35' E 000°29'5 9.9
2018-Apr-15 18:00N 50°37' E 000°36'510.1
2018-Apr-15 17:30N 50°39' E 000°43'510.8
2018-Apr-15 17:00N 50°43' E 000°50'510.8
2018-Apr-15 16:30N 50°46' E 000°57'510.5
2018-Apr-15 16:00N 50°49' E 001°04'510.6
2018-Apr-15 15:30N 50°52' E 001°11'910.0
2018-Apr-15 14:34N 50°58' E 001°22'110.2
2018-Apr-15 14:30N 50°58' E 001°23'5 9.4
2018-Apr-15 14:00N 51°01' E 001°28'4 8.5
2018-Apr-15 13:30N 51°05' E 001°32'4 7.4
2018-Apr-15 13:00N 51°07' E 001°37'4 7.4
2018-Apr-15 12:30N 51°10' E 001°41'4 7.7
2018-Apr-15 12:00N 51°13' E 001°45'4 7.7
2018-Apr-15 11:30N 51°16' E 001°48'4 8.1
2018-Apr-15 11:00N 51°20' E 001°51'4 8.5
2018-Apr-15 10:31N 51°24' E 001°54'5 9.3
2018-Apr-15 10:01N 51°27' E 001°58'510.2
2018-Apr-15 09:30N 51°31' E 002°04'510.9
2018-Apr-15 09:00N 51°35' E 002°10'611.2
2018-Apr-15 08:30N 51°39' E 002°16'611.6
2018-Apr-15 08:00N 51°43' E 002°22'611.6
2018-Apr-15 07:31N 51°48' E 002°29'611.6
2018-Apr-15 07:00N 51°52' E 002°35'611.3
2018-Apr-15 06:30N 51°56' E 002°41'3910.0
2018-Apr-15 02:35N 52°23' E 003°28'2 9.7
2018-Apr-15 02:23N 52°24' E 003°31'4 9.6
2018-Apr-15 01:58N 52°26' E 003°36'5 9.5
2018-Apr-15 01:29N 52°29' E 003°43'5 9.3
2018-Apr-15 00:59N 52°31' E 003°49'5 9.6
2018-Apr-15 00:30N 52°31' E 003°57'510.1
2018-Apr-15 00:00N 52°31' E 004°05'510.3
2018-Apr-14 23:30N 52°31' E 004°13'510.3
2018-Apr-14 23:00N 52°29' E 004°22'510.2
2018-Apr-14 22:31N 52°28' E 004°30'4 8.3
2018-Apr-14 22:00N 52°28' E 004°37'0 0.0
2018-Apr-14 21:30N 52°28' E 004°37'1 1.5
2018-Apr-14 21:00N 52°28' E 004°38'3 5.6
2018-Apr-14 20:30N 52°27' E 004°42'4 7.4
2018-Apr-14 20:00N 52°25' E 004°48'3 6.4
2018-Apr-14 19:31N 52°24' E 004°53'1 1.3
2018-Apr-14 19:00N 52°24' E 004°52'0 0.0
2018-Apr-14 18:30N 52°24' E 004°52'0 0.0
2018-Apr-14 18:00N 52°24' E 004°52'0 0.0
2018-Apr-14 17:30N 52°24' E 004°52'0 0.0
2018-Apr-14 17:00N 52°24' E 004°52'0 0.0
2018-Apr-14 16:30N 52°24' E 004°52'0 0.0
2018-Apr-14 16:00N 52°24' E 004°52'0 0.0
2018-Apr-14 15:30N 52°24' E 004°52'0 0.0
2018-Apr-14 15:00N 52°24' E 004°52'0 0.0
2018-Apr-14 14:30N 52°24' E 004°52'0 0.0
2018-Apr-14 14:00N 52°24' E 004°52'0 0.0
2018-Apr-14 13:30N 52°24' E 004°52'0 0.0
2018-Apr-14 13:00N 52°24' E 004°52'0 0.0
2018-Apr-14 12:30N 52°24' E 004°52'0 0.0
2018-Apr-14 12:00N 52°24' E 004°52'0 0.0
2018-Apr-14 11:30N 52°24' E 004°52'0 0.0
2018-Apr-14 11:00N 52°24' E 004°52'0 0.0
2018-Apr-14 10:30N 52°24' E 004°52'0 0.0
2018-Apr-14 10:00N 52°24' E 004°52'0 0.0
2018-Apr-14 09:30N 52°24' E 004°52'0 0.0
2018-Apr-14 09:00N 52°24' E 004°52'0 0.0
2018-Apr-14 08:30N 52°24' E 004°52'0 0.0
2018-Apr-14 08:00N 52°24' E 004°52'0 0.0
2018-Apr-14 07:30N 52°24' E 004°52'0 0.0
2018-Apr-14 07:00N 52°24' E 004°52'0 0.0
2018-Apr-14 06:30N 52°24' E 004°52'0 0.0
2018-Apr-14 06:00N 52°24' E 004°52'0 0.0
2018-Apr-14 05:30N 52°24' E 004°52'0 0.0
2018-Apr-14 05:00N 52°24' E 004°52'0 0.0
2018-Apr-14 04:30N 52°24' E 004°52'0 0.0
2018-Apr-14 04:00N 52°24' E 004°52'0 0.0
2018-Apr-14 03:30N 52°24' E 004°52'0 0.0
2018-Apr-14 03:00N 52°24' E 004°52'0 0.0
2018-Apr-14 02:30N 52°24' E 004°52'0 0.0
2018-Apr-14 02:00N 52°24' E 004°52'0 0.0
2018-Apr-14 01:30N 52°24' E 004°52'0 0.0
2018-Apr-14 01:00N 52°24' E 004°52'0 0.0
2018-Apr-14 00:30N 52°24' E 004°52'0 0.0
2018-Apr-14 00:00N 52°24' E 004°52'0 0.0
2018-Apr-13 23:30N 52°24' E 004°52'0 0.0
2018-Apr-13 23:00N 52°24' E 004°52'0 0.0
2018-Apr-13 22:30N 52°24' E 004°52'0 0.0
2018-Apr-13 22:00N 52°24' E 004°52'0 0.0
2018-Apr-13 21:30N 52°24' E 004°52'0 0.0
2018-Apr-13 21:00N 52°24' E 004°52'0 0.0
2018-Apr-13 20:30N 52°24' E 004°52'0 0.0
2018-Apr-13 20:00N 52°24' E 004°52'0 0.0
2018-Apr-13 19:30N 52°24' E 004°52'0 0.0
2018-Apr-13 19:00N 52°24' E 004°52'0 0.0
2018-Apr-13 18:30N 52°24' E 004°52'0 0.0
2018-Apr-13 18:00N 52°24' E 004°52'0 0.0
2018-Apr-13 17:30N 52°24' E 004°52'0 0.0
2018-Apr-13 17:00N 52°24' E 004°52'0 0.0
2018-Apr-13 16:30N 52°24' E 004°52'0 0.0
2018-Apr-13 16:00N 52°24' E 004°52'0 0.0
2018-Apr-13 15:30N 52°24' E 004°52'0 0.0
2018-Apr-13 15:00N 52°24' E 004°52'0 0.0
2018-Apr-13 14:30N 52°24' E 004°52'0 0.0
2018-Apr-13 14:00N 52°24' E 004°52'0 0.0
2018-Apr-13 13:30N 52°24' E 004°52'0 0.0
2018-Apr-13 13:00N 52°24' E 004°52'0 0.0
2018-Apr-13 12:30N 52°24' E 004°52'0 0.0
2018-Apr-13 12:00N 52°24' E 004°52'0 0.0
2018-Apr-13 11:30N 52°24' E 004°52'0 0.0
2018-Apr-13 11:00N 52°24' E 004°52'0 0.0
2018-Apr-13 10:30N 52°24' E 004°52'0 0.0
2018-Apr-13 10:00N 52°24' E 004°52'0 0.0
2018-Apr-13 09:30N 52°24' E 004°52'0 0.0
2018-Apr-13 09:00N 52°24' E 004°52'0 0.0
2018-Apr-13 08:30N 52°24' E 004°52'0 0.0
2018-Apr-13 08:00N 52°24' E 004°52'0 0.0
2018-Apr-13 07:30N 52°24' E 004°52'0 0.0
2018-Apr-13 07:00N 52°24' E 004°52'0 0.0
2018-Apr-13 06:30N 52°24' E 004°52'0 0.0
2018-Apr-13 06:00N 52°24' E 004°52'0 0.0
2018-Apr-13 05:30N 52°24' E 004°52'0 0.0
2018-Apr-13 05:00N 52°24' E 004°52'0 0.0
2018-Apr-13 04:30N 52°24' E 004°52'0 0.0
2018-Apr-13 04:00N 52°24' E 004°52'0 0.0
2018-Apr-13 03:30N 52°24' E 004°52'0 0.0
2018-Apr-13 03:00N 52°24' E 004°52'0 0.0
2018-Apr-13 02:30N 52°24' E 004°52'0 0.0
2018-Apr-13 02:00N 52°24' E 004°52'0 0.0
2018-Apr-13 01:30N 52°24' E 004°52'0 0.0
2018-Apr-13 01:00N 52°24' E 004°52'0 0.0
2018-Apr-13 00:30N 52°24' E 004°52'0 0.0
2018-Apr-13 00:00N 52°24' E 004°52'0 0.0
2018-Apr-12 23:30N 52°24' E 004°52'0 0.0
2018-Apr-12 23:00N 52°24' E 004°52'0 0.0
2018-Apr-12 22:30N 52°24' E 004°52'0 0.0
2018-Apr-12 22:00N 52°24' E 004°52'0 0.0
2018-Apr-12 21:30N 52°24' E 004°52'0 0.0
2018-Apr-12 21:00N 52°24' E 004°52'0 0.0
2018-Apr-12 20:30N 52°24' E 004°52'0 0.0
2018-Apr-12 20:00N 52°24' E 004°52'0 0.0
2018-Apr-12 19:30N 52°24' E 004°52'0 0.0
2018-Apr-12 19:00N 52°24' E 004°52'0 0.0
2018-Apr-12 18:30N 52°24' E 004°52'0 0.0
2018-Apr-12 18:00N 52°24' E 004°52'0 0.0
2018-Apr-12 17:30N 52°24' E 004°52'0 0.0
2018-Apr-12 17:00N 52°24' E 004°52'0 0.0
2018-Apr-12 16:30N 52°24' E 004°52'0 0.0
2018-Apr-12 16:00N 52°24' E 004°52'0 0.0
2018-Apr-12 15:30N 52°24' E 004°52'0 0.0
2018-Apr-12 15:00N 52°24' E 004°52'0 0.0
2018-Apr-12 14:30N 52°24' E 004°52'0 0.0
2018-Apr-12 14:00N 52°24' E 004°52'0 0.0
2018-Apr-12 13:30N 52°24' E 004°52'0 0.0
2018-Apr-12 13:00N 52°24' E 004°52'0 0.0
2018-Apr-12 12:30N 52°24' E 004°52'0 0.0
2018-Apr-12 12:00N 52°24' E 004°52'0 0.0
2018-Apr-12 11:30N 52°24' E 004°52'0 0.0
2018-Apr-12 11:00N 52°24' E 004°52'0 0.0
2018-Apr-12 10:30N 52°24' E 004°52'0 0.0
2018-Apr-12 10:00N 52°24' E 004°52'0 0.0
2018-Apr-12 09:30N 52°24' E 004°52'0 0.0
2018-Apr-12 09:00N 52°24' E 004°52'0 0.0
2018-Apr-12 08:30N 52°24' E 004°52'0 0.0
2018-Apr-12 08:00N 52°24' E 004°52'0 0.0
2018-Apr-12 07:30N 52°24' E 004°52'0 0.0
2018-Apr-12 07:00N 52°24' E 004°52'0 0.0
2018-Apr-12 06:30N 52°24' E 004°52'0 0.0
2018-Apr-12 06:00N 52°24' E 004°52'0 0.0
2018-Apr-12 05:30N 52°24' E 004°52'0 0.0
2018-Apr-12 05:00N 52°24' E 004°52'0 0.0
2018-Apr-12 04:30N 52°24' E 004°52'0 0.0
2018-Apr-12 04:00N 52°24' E 004°52'0 0.0
2018-Apr-12 03:30N 52°24' E 004°52'0 0.0
2018-Apr-12 03:00N 52°24' E 004°52'0 0.0
2018-Apr-12 02:30N 52°24' E 004°52'0 0.0
2018-Apr-12 02:00N 52°24' E 004°52'0 0.0
2018-Apr-12 01:30N 52°24' E 004°52'0 0.0
2018-Apr-12 01:00N 52°24' E 004°52'0 0.0
2018-Apr-12 00:30N 52°24' E 004°52'0 0.0
2018-Apr-12 00:00N 52°24' E 004°52'0 0.0
2018-Apr-11 23:30N 52°24' E 004°52'0 0.0
2018-Apr-11 23:00N 52°24' E 004°52'0 0.0
2018-Apr-11 22:30N 52°24' E 004°52'0 0.0
2018-Apr-11 22:00N 52°24' E 004°52'0 0.0
2018-Apr-11 21:30N 52°24' E 004°52'0 0.0
2018-Apr-11 21:00N 52°24' E 004°52'0 0.0
2018-Apr-11 20:30N 52°24' E 004°52'0 0.0
2018-Apr-11 20:00N 52°24' E 004°52'0 0.0
2018-Apr-11 19:30N 52°24' E 004°52'0 0.0
2018-Apr-11 19:00N 52°24' E 004°52'0 0.0
2018-Apr-11 18:30N 52°24' E 004°52'0 0.0
2018-Apr-11 18:00N 52°24' E 004°52'0 0.0
2018-Apr-11 17:30N 52°24' E 004°52'0 0.0
2018-Apr-11 17:00N 52°24' E 004°52'0 0.0
2018-Apr-11 16:30N 52°24' E 004°52'0 0.0
2018-Apr-11 16:00N 52°24' E 004°52'0 0.0
2018-Apr-11 15:30N 52°24' E 004°52'0 0.0
2018-Apr-11 15:00N 52°24' E 004°52'0 0.0
2018-Apr-11 14:30N 52°24' E 004°52'0 0.0
2018-Apr-11 14:00N 52°24' E 004°52'0 0.0
2018-Apr-11 13:30N 52°24' E 004°52'0 0.0
2018-Apr-11 13:00N 52°24' E 004°52'0 0.0
2018-Apr-11 12:30N 52°24' E 004°52'0 0.0
2018-Apr-11 12:00N 52°24' E 004°52'0 0.0
2018-Apr-11 11:30N 52°24' E 004°52'0 0.0
2018-Apr-11 11:00N 52°24' E 004°52'0 0.0
2018-Apr-11 10:30N 52°24' E 004°52'0 0.0
2018-Apr-11 10:00N 52°24' E 004°52'0 0.0
2018-Apr-11 09:30N 52°24' E 004°52'0 0.0
2018-Apr-11 09:00N 52°24' E 004°52'0 0.0
2018-Apr-11 08:30N 52°24' E 004°52'0 0.0
2018-Apr-11 08:00N 52°24' E 004°52'0 0.0
2018-Apr-11 07:30N 52°24' E 004°52'0 0.0
2018-Apr-11 07:00N 52°24' E 004°52'0 0.0
2018-Apr-11 06:30N 52°24' E 004°52'0 0.0
2018-Apr-11 06:00N 52°24' E 004°52'0 0.0
2018-Apr-11 05:30N 52°24' E 004°52'0 0.0
2018-Apr-11 05:00N 52°24' E 004°52'0 0.0
2018-Apr-11 04:30N 52°24' E 004°52'0 0.0
2018-Apr-11 04:00N 52°24' E 004°52'0 0.0
2018-Apr-11 03:30N 52°24' E 004°52'0 0.0
2018-Apr-11 03:00N 52°24' E 004°52'0 0.0
2018-Apr-11 02:30N 52°24' E 004°52'0 0.0
2018-Apr-11 02:00N 52°24' E 004°52'0 0.0
2018-Apr-11 01:30N 52°24' E 004°52'0 0.0
2018-Apr-11 01:00N 52°24' E 004°52'0 0.0
2018-Apr-11 00:30N 52°24' E 004°52'0 0.0
2018-Apr-11 00:00N 52°24' E 004°52'0 0.0
2018-Apr-10 23:30N 52°24' E 004°52'0 0.0
2018-Apr-10 23:00N 52°24' E 004°52'0 0.0
2018-Apr-10 22:30N 52°24' E 004°52'0 0.0
2018-Apr-10 22:00N 52°24' E 004°52'0 0.0
2018-Apr-10 21:30N 52°24' E 004°52'0 0.0
2018-Apr-10 21:00N 52°24' E 004°52'0 0.0
2018-Apr-10 20:30N 52°24' E 004°52'0 0.0
2018-Apr-10 20:00N 52°24' E 004°52'0 0.0
2018-Apr-10 19:30N 52°24' E 004°52'0 0.0
2018-Apr-10 19:00N 52°24' E 004°52'0 0.0
2018-Apr-10 18:30N 52°24' E 004°52'0 0.0
2018-Apr-10 18:00N 52°24' E 004°52'0 0.0
2018-Apr-10 17:30N 52°24' E 004°52'0 0.0
2018-Apr-10 17:00N 52°24' E 004°52'0 0.0
2018-Apr-10 16:30N 52°24' E 004°52'0 0.0
2018-Apr-10 16:00N 52°24' E 004°52'0 0.0
2018-Apr-10 15:30N 52°24' E 004°52'0 0.0
2018-Apr-10 15:00N 52°24' E 004°52'0 0.0
2018-Apr-10 14:30N 52°24' E 004°52'0 0.0
2018-Apr-10 14:00N 52°24' E 004°52'0 0.0
2018-Apr-10 13:30N 52°24' E 004°52'0 0.0
2018-Apr-10 13:00N 52°24' E 004°52'0 0.0
2018-Apr-10 12:30N 52°24' E 004°52'0 0.0
2018-Apr-10 12:00N 52°24' E 004°52'0 0.0
2018-Apr-10 11:30N 52°24' E 004°52'0 0.0
2018-Apr-10 11:00N 52°24' E 004°52'0 0.0
2018-Apr-10 10:30N 52°24' E 004°52'0 0.0
2018-Apr-10 10:00N 52°24' E 004°52'0 0.0
2018-Apr-10 09:30N 52°24' E 004°52'0 0.0
2018-Apr-10 09:00N 52°24' E 004°52'0 0.0
2018-Apr-10 08:30N 52°24' E 004°52'0 0.0
2018-Apr-10 08:00N 52°24' E 004°52'0 0.0
2018-Apr-10 07:30N 52°24' E 004°52'0 0.0
2018-Apr-10 07:00N 52°24' E 004°52'0 0.0
2018-Apr-10 06:30N 52°24' E 004°52'0 0.0
2018-Apr-10 06:00N 52°24' E 004°52'0 0.0
2018-Apr-10 05:30N 52°24' E 004°52'0 0.0
2018-Apr-10 05:00N 52°24' E 004°52'0 0.0
2018-Apr-10 04:30N 52°24' E 004°52'0 0.0
2018-Apr-10 04:00N 52°24' E 004°52'0 0.0
2018-Apr-10 03:30N 52°24' E 004°52'0 0.0
2018-Apr-10 03:00N 52°24' E 004°52'0 0.0
2018-Apr-10 02:30N 52°24' E 004°52'0 0.0
2018-Apr-10 02:00N 52°24' E 004°52'0 0.0
2018-Apr-10 01:30N 52°24' E 004°52'0 0.0
2018-Apr-10 01:00N 52°24' E 004°52'0 0.0
2018-Apr-10 00:30N 52°24' E 004°52'0 0.0
2018-Apr-10 00:00N 52°24' E 004°52'0 0.0
2018-Apr-09 23:30N 52°24' E 004°52'0 0.0
2018-Apr-09 23:00N 52°24' E 004°52'0 0.0
2018-Apr-09 22:30N 52°24' E 004°52'0 0.0
2018-Apr-09 22:00N 52°24' E 004°52'0 0.0
2018-Apr-09 21:30N 52°24' E 004°52'0 0.0
2018-Apr-09 21:00N 52°24' E 004°52'0 0.0
2018-Apr-09 20:30N 52°24' E 004°52'0 0.0
2018-Apr-09 20:00N 52°24' E 004°52'0 0.0
2018-Apr-09 19:30N 52°24' E 004°52'0 0.0
2018-Apr-09 19:00N 52°24' E 004°52'0 0.0
2018-Apr-09 18:30N 52°24' E 004°52'0 0.0
2018-Apr-09 18:00N 52°24' E 004°52'0 0.0
2018-Apr-09 17:30N 52°24' E 004°52'0 0.0
2018-Apr-09 17:00N 52°24' E 004°52'0 0.0
2018-Apr-09 16:30N 52°24' E 004°52'0 0.0
2018-Apr-09 16:00N 52°24' E 004°52'0 0.0
2018-Apr-09 15:30N 52°24' E 004°52'0 0.0
2018-Apr-09 15:00N 52°24' E 004°52'0 0.0
2018-Apr-09 14:30N 52°24' E 004°52'0 0.0
2018-Apr-09 14:00N 52°24' E 004°52'0 0.0
2018-Apr-09 13:30N 52°24' E 004°52'0 0.0
2018-Apr-09 13:00N 52°24' E 004°52'0 0.0
2018-Apr-09 12:30N 52°24' E 004°52'0 0.0
2018-Apr-09 12:00N 52°24' E 004°52'0 0.0
2018-Apr-09 11:30N 52°24' E 004°52'0 0.0
2018-Apr-09 11:00N 52°24' E 004°52'0 0.0
2018-Apr-09 10:30N 52°24' E 004°52'0 0.0
2018-Apr-09 10:00N 52°24' E 004°52'0 0.0
2018-Apr-09 09:30N 52°24' E 004°52'0 0.0
2018-Apr-09 09:00N 52°24' E 004°52'0 0.0
2018-Apr-09 08:30N 52°24' E 004°52'0 0.0
2018-Apr-09 08:00N 52°24' E 004°52'0 0.0
2018-Apr-09 07:30N 52°24' E 004°52'0 0.0
2018-Apr-09 07:00N 52°24' E 004°52'0 0.0
2018-Apr-09 06:30N 52°24' E 004°52'0 0.0
2018-Apr-09 06:00N 52°24' E 004°52'0 0.0
2018-Apr-09 05:30N 52°24' E 004°52'0 0.0
2018-Apr-09 05:00N 52°24' E 004°52'0 0.0
2018-Apr-09 04:30N 52°24' E 004°52'0 0.0
2018-Apr-09 04:00N 52°24' E 004°52'0 0.0
2018-Apr-09 03:30N 52°24' E 004°52'0 0.0
2018-Apr-09 03:00N 52°24' E 004°52'0 0.0
2018-Apr-09 02:30N 52°24' E 004°52'0 0.0
2018-Apr-09 02:00N 52°24' E 004°52'0 0.0
2018-Apr-09 01:30N 52°24' E 004°52'0 0.0
2018-Apr-09 01:00N 52°24' E 004°52'0 0.0
2018-Apr-09 00:30N 52°24' E 004°52'0 0.0
2018-Apr-09 00:00N 52°24' E 004°52'0 0.0
2018-Apr-08 23:30N 52°24' E 004°52'0 0.0
2018-Apr-08 23:00N 52°24' E 004°52'0 0.0
2018-Apr-08 22:30N 52°24' E 004°52'0 0.0
2018-Apr-08 22:00N 52°24' E 004°52'0 0.0
2018-Apr-08 21:30N 52°24' E 004°52'0 0.0
2018-Apr-08 21:00N 52°24' E 004°52'0 0.0
2018-Apr-08 20:30N 52°24' E 004°52'0 0.0
2018-Apr-08 20:00N 52°24' E 004°52'0 0.0
2018-Apr-08 19:30N 52°24' E 004°52'0 0.0
2018-Apr-08 19:00N 52°24' E 004°52'0 0.0
2018-Apr-08 18:30N 52°24' E 004°52'0 0.0
2018-Apr-08 18:00N 52°24' E 004°52'0 0.0
2018-Apr-08 17:30N 52°24' E 004°52'0 0.0
2018-Apr-08 17:00N 52°24' E 004°52'0 0.0
2018-Apr-08 16:30N 52°24' E 004°52'0 0.0
2018-Apr-08 16:00N 52°24' E 004°52'0 0.0
2018-Apr-08 15:30N 52°24' E 004°52'0 0.0
2018-Apr-08 15:00N 52°24' E 004°52'0 0.0
2018-Apr-08 14:30N 52°24' E 004°52'0 0.0
2018-Apr-08 14:00N 52°24' E 004°52'0 0.0
2018-Apr-08 13:30N 52°24' E 004°52'0 0.0
2018-Apr-08 13:00N 52°24' E 004°52'0 0.0
2018-Apr-08 12:30N 52°24' E 004°52'0 0.0
2018-Apr-08 12:00N 52°24' E 004°52'0 0.0
2018-Apr-08 11:30N 52°24' E 004°52'0 0.0
2018-Apr-08 11:00N 52°24' E 004°52'0 0.0
2018-Apr-08 10:30N 52°24' E 004°52'0 0.0
2018-Apr-08 10:00N 52°24' E 004°52'0 0.0
2018-Apr-08 09:30N 52°24' E 004°52'0 0.0
2018-Apr-08 09:00N 52°24' E 004°52'0 0.0
2018-Apr-08 08:30N 52°24' E 004°52'0 0.0
2018-Apr-08 08:00N 52°24' E 004°52'0 0.0
2018-Apr-08 07:30N 52°24' E 004°52'0 0.0
2018-Apr-08 07:00N 52°24' E 004°52'0 0.0
2018-Apr-08 06:30N 52°24' E 004°52'0 0.0
2018-Apr-08 06:00N 52°24' E 004°52'0 0.0
2018-Apr-08 05:30N 52°24' E 004°52'0 0.0
2018-Apr-08 05:00N 52°24' E 004°52'0 0.0
2018-Apr-08 04:30N 52°24' E 004°52'0 0.0
2018-Apr-08 04:00N 52°24' E 004°52'0 0.0
2018-Apr-08 03:30N 52°24' E 004°52'0 0.0
2018-Apr-08 03:00N 52°24' E 004°52'0 0.0
2018-Apr-08 02:30N 52°24' E 004°52'0 0.0
2018-Apr-08 02:00N 52°24' E 004°52'0 0.0
2018-Apr-08 01:30N 52°24' E 004°52'0 0.0
2018-Apr-08 01:00N 52°24' E 004°52'0 0.0
2018-Apr-08 00:30N 52°24' E 004°52'0 0.0
2018-Apr-08 00:00N 52°24' E 004°52'0 0.0
2018-Apr-07 23:30N 52°24' E 004°52'0 0.0
2018-Apr-07 23:00N 52°24' E 004°52'0 0.0
2018-Apr-07 22:30N 52°24' E 004°52'0 0.0
2018-Apr-07 22:00N 52°24' E 004°52'0 0.0
2018-Apr-07 21:30N 52°24' E 004°52'0 0.0
2018-Apr-07 21:00N 52°24' E 004°52'0 0.0
2018-Apr-07 20:30N 52°24' E 004°52'0 0.0
2018-Apr-07 20:00N 52°24' E 004°52'0 0.0
2018-Apr-07 19:30N 52°24' E 004°52'0 0.0
2018-Apr-07 19:00N 52°24' E 004°52'0 0.0
2018-Apr-07 18:30N 52°24' E 004°52'0 0.0
2018-Apr-07 18:00N 52°24' E 004°52'0 0.0
2018-Apr-07 17:30N 52°24' E 004°52'0 0.0
2018-Apr-07 17:00N 52°24' E 004°52'0 0.0
2018-Apr-07 16:30N 52°24' E 004°52'0 0.0
2018-Apr-07 16:00N 52°24' E 004°52'0 0.0
2018-Apr-07 15:30N 52°24' E 004°52'0 0.0
2018-Apr-07 15:00N 52°24' E 004°52'0 0.0
2018-Apr-07 14:30N 52°24' E 004°52'0 0.0
2018-Apr-07 14:00N 52°24' E 004°52'0 0.0
2018-Apr-07 13:30N 52°24' E 004°52'0 0.0
2018-Apr-07 13:00N 52°24' E 004°52'0 0.0
2018-Apr-07 12:30N 52°24' E 004°52'0 0.0
2018-Apr-07 12:00N 52°24' E 004°52'0 0.0
2018-Apr-07 11:30N 52°24' E 004°52'0 0.0
2018-Apr-07 11:00N 52°24' E 004°52'0 0.0
2018-Apr-07 10:30N 52°24' E 004°52'0 0.0
2018-Apr-07 10:00N 52°24' E 004°52'0 0.0
2018-Apr-07 09:30N 52°24' E 004°52'0 0.0
2018-Apr-07 09:00N 52°24' E 004°52'0 0.0
2018-Apr-07 08:30N 52°24' E 004°52'0 0.0
2018-Apr-07 08:00N 52°24' E 004°52'0 0.0
2018-Apr-07 07:30N 52°24' E 004°52'0 0.0
2018-Apr-07 07:00N 52°24' E 004°52'0 0.0
2018-Apr-07 06:30N 52°24' E 004°52'0 0.0
2018-Apr-07 06:00N 52°24' E 004°52'0 0.0
2018-Apr-07 05:30N 52°24' E 004°52'0 0.0
2018-Apr-07 05:00N 52°24' E 004°52'0 0.0
2018-Apr-07 04:30N 52°24' E 004°52'0 0.0
2018-Apr-07 04:00N 52°24' E 004°52'0 0.0
2018-Apr-07 03:30N 52°24' E 004°52'0 0.0
2018-Apr-07 03:00N 52°24' E 004°52'0 0.0
2018-Apr-07 02:30N 52°24' E 004°52'0 0.0
2018-Apr-07 02:00N 52°24' E 004°52'0 0.0
2018-Apr-07 01:30N 52°24' E 004°52'0 0.0
2018-Apr-07 01:00N 52°24' E 004°52'0 0.0
2018-Apr-07 00:30N 52°24' E 004°52'0 0.0
2018-Apr-07 00:00N 52°24' E 004°52'0 0.0
2018-Apr-06 23:30N 52°24' E 004°52'0 0.0
2018-Apr-06 23:00N 52°24' E 004°52'0 0.0
2018-Apr-06 22:30N 52°24' E 004°52'0 0.0
2018-Apr-06 22:00N 52°24' E 004°52'0 0.0
2018-Apr-06 21:30N 52°24' E 004°52'0 0.0
2018-Apr-06 21:00N 52°24' E 004°52'0 0.0
2018-Apr-06 20:30N 52°24' E 004°52'0 0.0
2018-Apr-06 20:00N 52°24' E 004°52'  
Track history (hours):
 
Tides and Currents Weather Stations Pressure Air Temp Water Temp Dewpoint Dewpoint Depression Visibility Wind Speed Wind Dir Waves Ship Positions

Faneromeni

Last reported at 2018-Apr-16 19:59 UTC. Time now 2018-May-25 05:32 UTC.
Position N 49°16' W 004°49'.
Warning: this ship's position is 38 days out of date.

Length 230 m; draft 9.5 m.

Type: Ship. MMSI: 240576000.

Date/timePositionNaut miles runAvg speedWind from/ knotsBaromVisibWave heightAir tempDewpointWater temp
2018-Apr-16 19:59N 49°16' W 004°49'12 7.4
2018-Apr-16 18:23N 49°22' W 004°34'32 7.5
2018-Apr-16 14:04N 49°38' W 003°51'110.2
2018-Apr-16 13:55N 49°39' W 003°49'510.4
2018-Apr-16 13:27N 49°42' W 003°42'511.3
2018-Apr-16 13:00N 49°44' W 003°36'611.4
2018-Apr-16 12:30N 49°47' W 003°28'611.2
2018-Apr-16 12:00N 49°50' W 003°20'610.9
2018-Apr-16 11:26N 49°53' W 003°12'510.4
2018-Apr-16 11:00N 49°55' W 003°06'5 9.8
2018-Apr-16 10:30N 49°57' W 002°59'5 9.1
2018-Apr-16 10:00N 49°59' W 002°53'4 8.2
2018-Apr-16 09:29N 50°01' W 002°46'4 7.3
2018-Apr-16 09:00N 50°01' W 002°41'3 6.6
2018-Apr-16 08:31N 50°02' W 002°36'3 6.1
2018-Apr-16 07:59N 50°03' W 002°31'4 5.3
2018-Apr-16 07:18N 50°04' W 002°26'3 5.2
2018-Apr-16 06:43N 50°05' W 002°21'4 5.5
2018-Apr-16 05:58N 50°06' W 002°15'4 6.2
2018-Apr-16 05:15N 50°07' W 002°08'3 7.5
2018-Apr-16 04:55N 50°08' W 002°05'3 8.5
2018-Apr-16 04:31N 50°09' W 001°60'5 9.6
2018-Apr-16 04:00N 50°10' W 001°52'510.5
2018-Apr-16 03:30N 50°12' W 001°44'510.9
2018-Apr-16 03:00N 50°13' W 001°36'611.5
2018-Apr-16 02:30N 50°14' W 001°27'611.7
2018-Apr-16 02:01N 50°16' W 001°19'611.6
2018-Apr-16 01:31N 50°18' W 001°10'611.5
2018-Apr-16 01:00N 50°19' W 001°01'611.5
2018-Apr-16 00:30N 50°21' W 000°53'1710.2
2018-Apr-15 22:52N 50°25' W 000°27'3 9.2
2018-Apr-15 22:30N 50°26' W 000°22'4 8.7
2018-Apr-15 22:00N 50°27' W 000°16'4 8.2
2018-Apr-15 21:30N 50°28' W 000°09'4 7.8
2018-Apr-15 21:00N 50°29' W 000°04'4 7.9
2018-Apr-15 20:30N 50°30' E 000°02'4 8.0
2018-Apr-15 20:00N 50°31' E 000°09'4 8.4
2018-Apr-15 19:30N 50°32' E 000°15'5 9.1
2018-Apr-15 19:00N 50°34' E 000°22'5 9.3
2018-Apr-15 18:30N 50°35' E 000°29'5 9.9
2018-Apr-15 18:00N 50°37' E 000°36'510.1
2018-Apr-15 17:30N 50°39' E 000°43'510.8
2018-Apr-15 17:00N 50°43' E 000°50'510.8
2018-Apr-15 16:30N 50°46' E 000°57'510.5
2018-Apr-15 16:00N 50°49' E 001°04'510.6
2018-Apr-15 15:30N 50°52' E 001°11'910.0
2018-Apr-15 14:34N 50°58' E 001°22'110.2
2018-Apr-15 14:30N 50°58' E 001°23'5 9.4
2018-Apr-15 14:00N 51°01' E 001°28'4 8.5
2018-Apr-15 13:30N 51°05' E 001°32'4 7.4
2018-Apr-15 13:00N 51°07' E 001°37'4 7.4
2018-Apr-15 12:30N 51°10' E 001°41'4 7.7
2018-Apr-15 12:00N 51°13' E 001°45'4 7.7
2018-Apr-15 11:30N 51°16' E 001°48'4 8.1
2018-Apr-15 11:00N 51°20' E 001°51'4 8.5
2018-Apr-15 10:31N 51°24' E 001°54'5 9.3
2018-Apr-15 10:01N 51°27' E 001°58'510.2
2018-Apr-15 09:30N 51°31' E 002°04'510.9
2018-Apr-15 09:00N 51°35' E 002°10'611.2
2018-Apr-15 08:30N 51°39' E 002°16'611.6
2018-Apr-15 08:00N 51°43' E 002°22'611.6
2018-Apr-15 07:31N 51°48' E 002°29'611.6
2018-Apr-15 07:00N 51°52' E 002°35'611.3
2018-Apr-15 06:30N 51°56' E 002°41'3910.0
2018-Apr-15 02:35N 52°23' E 003°28'2 9.7
2018-Apr-15 02:23N 52°24' E 003°31'4 9.6
2018-Apr-15 01:58N 52°26' E 003°36'5 9.5
2018-Apr-15 01:29N 52°29' E 003°43'5 9.3
2018-Apr-15 00:59N 52°31' E 003°49'5 9.6
2018-Apr-15 00:30N 52°31' E 003°57'510.1
2018-Apr-15 00:00N 52°31' E 004°05'510.3
2018-Apr-14 23:30N 52°31' E 004°13'510.3
2018-Apr-14 23:00N 52°29' E 004°22'510.2
2018-Apr-14 22:31N 52°28' E 004°30'4 8.3
2018-Apr-14 22:00N 52°28' E 004°37'0 0.0
2018-Apr-14 21:30N 52°28' E 004°37'1 1.5
2018-Apr-14 21:00N 52°28' E 004°38'3 5.6
2018-Apr-14 20:30N 52°27' E 004°42'4 7.4
2018-Apr-14 20:00N 52°25' E 004°48'3 6.4
2018-Apr-14 19:31N 52°24' E 004°53'1 1.3
2018-Apr-14 19:00N 52°24' E 004°52'0 0.0
2018-Apr-14 18:30N 52°24' E 004°52'0 0.0
2018-Apr-14 18:00N 52°24' E 004°52'0 0.0
2018-Apr-14 17:30N 52°24' E 004°52'0 0.0
2018-Apr-14 17:00N 52°24' E 004°52'0 0.0
2018-Apr-14 16:30N 52°24' E 004°52'0 0.0
2018-Apr-14 16:00N 52°24' E 004°52'0 0.0
2018-Apr-14 15:30N 52°24' E 004°52'0 0.0
2018-Apr-14 15:00N 52°24' E 004°52'0 0.0
2018-Apr-14 14:30N 52°24' E 004°52'0 0.0
2018-Apr-14 14:00N 52°24' E 004°52'0 0.0
2018-Apr-14 13:30N 52°24' E 004°52'0 0.0
2018-Apr-14 13:00N 52°24' E 004°52'0 0.0
2018-Apr-14 12:30N 52°24' E 004°52'0 0.0
2018-Apr-14 12:00N 52°24' E 004°52'0 0.0
2018-Apr-14 11:30N 52°24' E 004°52'0 0.0
2018-Apr-14 11:00N 52°24' E 004°52'0 0.0
2018-Apr-14 10:30N 52°24' E 004°52'0 0.0
2018-Apr-14 10:00N 52°24' E 004°52'0 0.0
2018-Apr-14 09:30N 52°24' E 004°52'0 0.0
2018-Apr-14 09:00N 52°24' E 004°52'0 0.0
2018-Apr-14 08:30N 52°24' E 004°52'0 0.0
2018-Apr-14 08:00N 52°24' E 004°52'0 0.0
2018-Apr-14 07:30N 52°24' E 004°52'0 0.0
2018-Apr-14 07:00N 52°24' E 004°52'0 0.0
2018-Apr-14 06:30N 52°24' E 004°52'0 0.0
2018-Apr-14 06:00N 52°24' E 004°52'0 0.0
2018-Apr-14 05:30N 52°24' E 004°52'0 0.0
2018-Apr-14 05:00N 52°24' E 004°52'0 0.0
2018-Apr-14 04:30N 52°24' E 004°52'0 0.0
2018-Apr-14 04:00N 52°24' E 004°52'0 0.0
2018-Apr-14 03:30N 52°24' E 004°52'0 0.0
2018-Apr-14 03:00N 52°24' E 004°52'0 0.0
2018-Apr-14 02:30N 52°24' E 004°52'0 0.0
2018-Apr-14 02:00N 52°24' E 004°52'0 0.0
2018-Apr-14 01:30N 52°24' E 004°52'0 0.0
2018-Apr-14 01:00N 52°24' E 004°52'0 0.0
2018-Apr-14 00:30N 52°24' E 004°52'0 0.0
2018-Apr-14 00:00N 52°24' E 004°52'0 0.0
2018-Apr-13 23:30N 52°24' E 004°52'0 0.0
2018-Apr-13 23:00N 52°24' E 004°52'0 0.0
2018-Apr-13 22:30N 52°24' E 004°52'0 0.0
2018-Apr-13 22:00N 52°24' E 004°52'0 0.0
2018-Apr-13 21:30N 52°24' E 004°52'0 0.0
2018-Apr-13 21:00N 52°24' E 004°52'0 0.0
2018-Apr-13 20:30N 52°24' E 004°52'0 0.0
2018-Apr-13 20:00N 52°24' E 004°52'0 0.0
2018-Apr-13 19:30N 52°24' E 004°52'0 0.0
2018-Apr-13 19:00N 52°24' E 004°52'0 0.0
2018-Apr-13 18:30N 52°24' E 004°52'0 0.0
2018-Apr-13 18:00N 52°24' E 004°52'0 0.0
2018-Apr-13 17:30N 52°24' E 004°52'0 0.0
2018-Apr-13 17:00N 52°24' E 004°52'0 0.0
2018-Apr-13 16:30N 52°24' E 004°52'0 0.0
2018-Apr-13 16:00N 52°24' E 004°52'0 0.0
2018-Apr-13 15:30N 52°24' E 004°52'0 0.0
2018-Apr-13 15:00N 52°24' E 004°52'0 0.0
2018-Apr-13 14:30N 52°24' E 004°52'0 0.0
2018-Apr-13 14:00N 52°24' E 004°52'0 0.0
2018-Apr-13 13:30N 52°24' E 004°52'0 0.0
2018-Apr-13 13:00N 52°24' E 004°52'0 0.0
2018-Apr-13 12:30N 52°24' E 004°52'0 0.0
2018-Apr-13 12:00N 52°24' E 004°52'0 0.0
2018-Apr-13 11:30N 52°24' E 004°52'0 0.0
2018-Apr-13 11:00N 52°24' E 004°52'0 0.0
2018-Apr-13 10:30N 52°24' E 004°52'0 0.0
2018-Apr-13 10:00N 52°24' E 004°52'0 0.0
2018-Apr-13 09:30N 52°24' E 004°52'0 0.0
2018-Apr-13 09:00N 52°24' E 004°52'0 0.0
2018-Apr-13 08:30N 52°24' E 004°52'0 0.0
2018-Apr-13 08:00N 52°24' E 004°52'0 0.0
2018-Apr-13 07:30N 52°24' E 004°52'0 0.0
2018-Apr-13 07:00N 52°24' E 004°52'0 0.0
2018-Apr-13 06:30N 52°24' E 004°52'0 0.0
2018-Apr-13 06:00N 52°24' E 004°52'0 0.0
2018-Apr-13 05:30N 52°24' E 004°52'0 0.0
2018-Apr-13 05:00N 52°24' E 004°52'0 0.0
2018-Apr-13 04:30N 52°24' E 004°52'0 0.0
2018-Apr-13 04:00N 52°24' E 004°52'0 0.0
2018-Apr-13 03:30N 52°24' E 004°52'0 0.0
2018-Apr-13 03:00N 52°24' E 004°52'0 0.0
2018-Apr-13 02:30N 52°24' E 004°52'0 0.0
2018-Apr-13 02:00N 52°24' E 004°52'0 0.0
2018-Apr-13 01:30N 52°24' E 004°52'0 0.0
2018-Apr-13 01:00N 52°24' E 004°52'0 0.0
2018-Apr-13 00:30N 52°24' E 004°52'0 0.0
2018-Apr-13 00:00N 52°24' E 004°52'0 0.0
2018-Apr-12 23:30N 52°24' E 004°52'0 0.0
2018-Apr-12 23:00N 52°24' E 004°52'0 0.0
2018-Apr-12 22:30N 52°24' E 004°52'0 0.0
2018-Apr-12 22:00N 52°24' E 004°52'0 0.0
2018-Apr-12 21:30N 52°24' E 004°52'0 0.0
2018-Apr-12 21:00N 52°24' E 004°52'0 0.0
2018-Apr-12 20:30N 52°24' E 004°52'0 0.0
2018-Apr-12 20:00N 52°24' E 004°52'0 0.0
2018-Apr-12 19:30N 52°24' E 004°52'0 0.0
2018-Apr-12 19:00N 52°24' E 004°52'0 0.0
2018-Apr-12 18:30N 52°24' E 004°52'0 0.0
2018-Apr-12 18:00N 52°24' E 004°52'0 0.0
2018-Apr-12 17:30N 52°24' E 004°52'0 0.0
2018-Apr-12 17:00N 52°24' E 004°52'0 0.0
2018-Apr-12 16:30N 52°24' E 004°52'0 0.0
2018-Apr-12 16:00N 52°24' E 004°52'0 0.0
2018-Apr-12 15:30N 52°24' E 004°52'0 0.0
2018-Apr-12 15:00N 52°24' E 004°52'0 0.0
2018-Apr-12 14:30N 52°24' E 004°52'0 0.0
2018-Apr-12 14:00N 52°24' E 004°52'0 0.0
2018-Apr-12 13:30N 52°24' E 004°52'0 0.0
2018-Apr-12 13:00N 52°24' E 004°52'0 0.0
2018-Apr-12 12:30N 52°24' E 004°52'0 0.0
2018-Apr-12 12:00N 52°24' E 004°52'0 0.0
2018-Apr-12 11:30N 52°24' E 004°52'0 0.0
2018-Apr-12 11:00N 52°24' E 004°52'0 0.0
2018-Apr-12 10:30N 52°24' E 004°52'0 0.0
2018-Apr-12 10:00N 52°24' E 004°52'0 0.0
2018-Apr-12 09:30N 52°24' E 004°52'0 0.0
2018-Apr-12 09:00N 52°24' E 004°52'0 0.0
2018-Apr-12 08:30N 52°24' E 004°52'0 0.0
2018-Apr-12 08:00N 52°24' E 004°52'0 0.0
2018-Apr-12 07:30N 52°24' E 004°52'0 0.0
2018-Apr-12 07:00N 52°24' E 004°52'0 0.0
2018-Apr-12 06:30N 52°24' E 004°52'0 0.0
2018-Apr-12 06:00N 52°24' E 004°52'0 0.0
2018-Apr-12 05:30N 52°24' E 004°52'0 0.0
2018-Apr-12 05:00N 52°24' E 004°52'0 0.0
2018-Apr-12 04:30N 52°24' E 004°52'0 0.0
2018-Apr-12 04:00N 52°24' E 004°52'0 0.0
2018-Apr-12 03:30N 52°24' E 004°52'0 0.0
2018-Apr-12 03:00N 52°24' E 004°52'0 0.0
2018-Apr-12 02:30N 52°24' E 004°52'0 0.0
2018-Apr-12 02:00N 52°24' E 004°52'0 0.0
2018-Apr-12 01:30N 52°24' E 004°52'0 0.0
2018-Apr-12 01:00N 52°24' E 004°52'0 0.0
2018-Apr-12 00:30N 52°24' E 004°52'0 0.0
2018-Apr-12 00:00N 52°24' E 004°52'0 0.0
2018-Apr-11 23:30N 52°24' E 004°52'0 0.0
2018-Apr-11 23:00N 52°24' E 004°52'0 0.0
2018-Apr-11 22:30N 52°24' E 004°52'0 0.0
2018-Apr-11 22:00N 52°24' E 004°52'0 0.0
2018-Apr-11 21:30N 52°24' E 004°52'0 0.0
2018-Apr-11 21:00N 52°24' E 004°52'0 0.0
2018-Apr-11 20:30N 52°24' E 004°52'0 0.0
2018-Apr-11 20:00N 52°24' E 004°52'0 0.0
2018-Apr-11 19:30N 52°24' E 004°52'0 0.0
2018-Apr-11 19:00N 52°24' E 004°52'0 0.0
2018-Apr-11 18:30N 52°24' E 004°52'0 0.0
2018-Apr-11 18:00N 52°24' E 004°52'0 0.0
2018-Apr-11 17:30N 52°24' E 004°52'0 0.0
2018-Apr-11 17:00N 52°24' E 004°52'0 0.0
2018-Apr-11 16:30N 52°24' E 004°52'0 0.0
2018-Apr-11 16:00N 52°24' E 004°52'0 0.0
2018-Apr-11 15:30N 52°24' E 004°52'0 0.0
2018-Apr-11 15:00N 52°24' E 004°52'0 0.0
2018-Apr-11 14:30N 52°24' E 004°52'0 0.0
2018-Apr-11 14:00N 52°24' E 004°52'0 0.0
2018-Apr-11 13:30N 52°24' E 004°52'0 0.0
2018-Apr-11 13:00N 52°24' E 004°52'0 0.0
2018-Apr-11 12:30N 52°24' E 004°52'0 0.0
2018-Apr-11 12:00N 52°24' E 004°52'0 0.0
2018-Apr-11 11:30N 52°24' E 004°52'0 0.0
2018-Apr-11 11:00N 52°24' E 004°52'0 0.0
2018-Apr-11 10:30N 52°24' E 004°52'0 0.0
2018-Apr-11 10:00N 52°24' E 004°52'0 0.0
2018-Apr-11 09:30N 52°24' E 004°52'0 0.0
2018-Apr-11 09:00N 52°24' E 004°52'0 0.0
2018-Apr-11 08:30N 52°24' E 004°52'0 0.0
2018-Apr-11 08:00N 52°24' E 004°52'0 0.0
2018-Apr-11 07:30N 52°24' E 004°52'0 0.0
2018-Apr-11 07:00N 52°24' E 004°52'0 0.0
2018-Apr-11 06:30N 52°24' E 004°52'0 0.0
2018-Apr-11 06:00N 52°24' E 004°52'0 0.0
2018-Apr-11 05:30N 52°24' E 004°52'0 0.0
2018-Apr-11 05:00N 52°24' E 004°52'0 0.0
2018-Apr-11 04:30N 52°24' E 004°52'0 0.0
2018-Apr-11 04:00N 52°24' E 004°52'0 0.0
2018-Apr-11 03:30N 52°24' E 004°52'0 0.0
2018-Apr-11 03:00N 52°24' E 004°52'0 0.0
2018-Apr-11 02:30N 52°24' E 004°52'0 0.0
2018-Apr-11 02:00N 52°24' E 004°52'0 0.0
2018-Apr-11 01:30N 52°24' E 004°52'0 0.0
2018-Apr-11 01:00N 52°24' E 004°52'0 0.0
2018-Apr-11 00:30N 52°24' E 004°52'0 0.0
2018-Apr-11 00:00N 52°24' E 004°52'0 0.0
2018-Apr-10 23:30N 52°24' E 004°52'0 0.0
2018-Apr-10 23:00N 52°24' E 004°52'0 0.0
2018-Apr-10 22:30N 52°24' E 004°52'0 0.0
2018-Apr-10 22:00N 52°24' E 004°52'0 0.0
2018-Apr-10 21:30N 52°24' E 004°52'0 0.0
2018-Apr-10 21:00N 52°24' E 004°52'0 0.0
2018-Apr-10 20:30N 52°24' E 004°52'0 0.0
2018-Apr-10 20:00N 52°24' E 004°52'0 0.0
2018-Apr-10 19:30N 52°24' E 004°52'0 0.0
2018-Apr-10 19:00N 52°24' E 004°52'0 0.0
2018-Apr-10 18:30N 52°24' E 004°52'0 0.0
2018-Apr-10 18:00N 52°24' E 004°52'0 0.0
2018-Apr-10 17:30N 52°24' E 004°52'0 0.0
2018-Apr-10 17:00N 52°24' E 004°52'0 0.0
2018-Apr-10 16:30N 52°24' E 004°52'0 0.0
2018-Apr-10 16:00N 52°24' E 004°52'0 0.0
2018-Apr-10 15:30N 52°24' E 004°52'0 0.0
2018-Apr-10 15:00N 52°24' E 004°52'0 0.0
2018-Apr-10 14:30N 52°24' E 004°52'0 0.0
2018-Apr-10 14:00N 52°24' E 004°52'0 0.0
2018-Apr-10 13:30N 52°24' E 004°52'0 0.0
2018-Apr-10 13:00N 52°24' E 004°52'0 0.0
2018-Apr-10 12:30N 52°24' E 004°52'0 0.0
2018-Apr-10 12:00N 52°24' E 004°52'0 0.0
2018-Apr-10 11:30N 52°24' E 004°52'0 0.0
2018-Apr-10 11:00N 52°24' E 004°52'0 0.0
2018-Apr-10 10:30N 52°24' E 004°52'0 0.0
2018-Apr-10 10:00N 52°24' E 004°52'0 0.0
2018-Apr-10 09:30N 52°24' E 004°52'0 0.0
2018-Apr-10 09:00N 52°24' E 004°52'0 0.0
2018-Apr-10 08:30N 52°24' E 004°52'0 0.0
2018-Apr-10 08:00N 52°24' E 004°52'0 0.0
2018-Apr-10 07:30N 52°24' E 004°52'0 0.0
2018-Apr-10 07:00N 52°24' E 004°52'0 0.0
2018-Apr-10 06:30N 52°24' E 004°52'0 0.0
2018-Apr-10 06:00N 52°24' E 004°52'0 0.0
2018-Apr-10 05:30N 52°24' E 004°52'0 0.0
2018-Apr-10 05:00N 52°24' E 004°52'0 0.0
2018-Apr-10 04:30N 52°24' E 004°52'0 0.0
2018-Apr-10 04:00N 52°24' E 004°52'0 0.0
2018-Apr-10 03:30N 52°24' E 004°52'0 0.0
2018-Apr-10 03:00N 52°24' E 004°52'0 0.0
2018-Apr-10 02:30N 52°24' E 004°52'0 0.0
2018-Apr-10 02:00N 52°24' E 004°52'0 0.0
2018-Apr-10 01:30N 52°24' E 004°52'0 0.0
2018-Apr-10 01:00N 52°24' E 004°52'0 0.0
2018-Apr-10 00:30N 52°24' E 004°52'0 0.0
2018-Apr-10 00:00N 52°24' E 004°52'0 0.0
2018-Apr-09 23:30N 52°24' E 004°52'0 0.0
2018-Apr-09 23:00N 52°24' E 004°52'0 0.0
2018-Apr-09 22:30N 52°24' E 004°52'0 0.0
2018-Apr-09 22:00N 52°24' E 004°52'0 0.0
2018-Apr-09 21:30N 52°24' E 004°52'0 0.0
2018-Apr-09 21:00N 52°24' E 004°52'0 0.0
2018-Apr-09 20:30N 52°24' E 004°52'0 0.0
2018-Apr-09 20:00N 52°24' E 004°52'0 0.0
2018-Apr-09 19:30N 52°24' E 004°52'0 0.0
2018-Apr-09 19:00N 52°24' E 004°52'0 0.0
2018-Apr-09 18:30N 52°24' E 004°52'0 0.0
2018-Apr-09 18:00N 52°24' E 004°52'0 0.0
2018-Apr-09 17:30N 52°24' E 004°52'0 0.0
2018-Apr-09 17:00N 52°24' E 004°52'0 0.0
2018-Apr-09 16:30N 52°24' E 004°52'0 0.0
2018-Apr-09 16:00N 52°24' E 004°52'0 0.0
2018-Apr-09 15:30N 52°24' E 004°52'0 0.0
2018-Apr-09 15:00N 52°24' E 004°52'0 0.0
2018-Apr-09 14:30N 52°24' E 004°52'0 0.0
2018-Apr-09 14:00N 52°24' E 004°52'0 0.0
2018-Apr-09 13:30N 52°24' E 004°52'0 0.0
2018-Apr-09 13:00N 52°24' E 004°52'0 0.0
2018-Apr-09 12:30N 52°24' E 004°52'0 0.0
2018-Apr-09 12:00N 52°24' E 004°52'0 0.0
2018-Apr-09 11:30N 52°24' E 004°52'0 0.0
2018-Apr-09 11:00N 52°24' E 004°52'0 0.0
2018-Apr-09 10:30N 52°24' E 004°52'0 0.0
2018-Apr-09 10:00N 52°24' E 004°52'0 0.0
2018-Apr-09 09:30N 52°24' E 004°52'0 0.0
2018-Apr-09 09:00N 52°24' E 004°52'0 0.0
2018-Apr-09 08:30N 52°24' E 004°52'0 0.0
2018-Apr-09 08:00N 52°24' E 004°52'0 0.0
2018-Apr-09 07:30N 52°24' E 004°52'0 0.0
2018-Apr-09 07:00N 52°24' E 004°52'0 0.0
2018-Apr-09 06:30N 52°24' E 004°52'0 0.0
2018-Apr-09 06:00N 52°24' E 004°52'0 0.0
2018-Apr-09 05:30N 52°24' E 004°52'0 0.0
2018-Apr-09 05:00N 52°24' E 004°52'0 0.0
2018-Apr-09 04:30N 52°24' E 004°52'0 0.0
2018-Apr-09 04:00N 52°24' E 004°52'0 0.0
2018-Apr-09 03:30N 52°24' E 004°52'0 0.0
2018-Apr-09 03:00N 52°24' E 004°52'0 0.0
2018-Apr-09 02:30N 52°24' E 004°52'0 0.0
2018-Apr-09 02:00N 52°24' E 004°52'0 0.0
2018-Apr-09 01:30N 52°24' E 004°52'0 0.0
2018-Apr-09 01:00N 52°24' E 004°52'0 0.0
2018-Apr-09 00:30N 52°24' E 004°52'0 0.0
2018-Apr-09 00:00N 52°24' E 004°52'0 0.0
2018-Apr-08 23:30N 52°24' E 004°52'0 0.0
2018-Apr-08 23:00N 52°24' E 004°52'0 0.0
2018-Apr-08 22:30N 52°24' E 004°52'0 0.0
2018-Apr-08 22:00N 52°24' E 004°52'0 0.0
2018-Apr-08 21:30N 52°24' E 004°52'0 0.0
2018-Apr-08 21:00N 52°24' E 004°52'0 0.0
2018-Apr-08 20:30N 52°24' E 004°52'0 0.0
2018-Apr-08 20:00N 52°24' E 004°52'0 0.0
2018-Apr-08 19:30N 52°24' E 004°52'0 0.0
2018-Apr-08 19:00N 52°24' E 004°52'0 0.0
2018-Apr-08 18:30N 52°24' E 004°52'0 0.0
2018-Apr-08 18:00N 52°24' E 004°52'0 0.0
2018-Apr-08 17:30N 52°24' E 004°52'0 0.0
2018-Apr-08 17:00N 52°24' E 004°52'0 0.0
2018-Apr-08 16:30N 52°24' E 004°52'0 0.0
2018-Apr-08 16:00N 52°24' E 004°52'0 0.0
2018-Apr-08 15:30N 52°24' E 004°52'0 0.0
2018-Apr-08 15:00N 52°24' E 004°52'0 0.0
2018-Apr-08 14:30N 52°24' E 004°52'0 0.0
2018-Apr-08 14:00N 52°24' E 004°52'0 0.0
2018-Apr-08 13:30N 52°24' E 004°52'0 0.0
2018-Apr-08 13:00N 52°24' E 004°52'0 0.0
2018-Apr-08 12:30N 52°24' E 004°52'0 0.0
2018-Apr-08 12:00N 52°24' E 004°52'0 0.0
2018-Apr-08 11:30N 52°24' E 004°52'0 0.0
2018-Apr-08 11:00N 52°24' E 004°52'0 0.0
2018-Apr-08 10:30N 52°24' E 004°52'0 0.0
2018-Apr-08 10:00N 52°24' E 004°52'0 0.0
2018-Apr-08 09:30N 52°24' E 004°52'0 0.0
2018-Apr-08 09:00N 52°24' E 004°52'0 0.0
2018-Apr-08 08:30N 52°24' E 004°52'0 0.0
2018-Apr-08 08:00N 52°24' E 004°52'0 0.0
2018-Apr-08 07:30N 52°24' E 004°52'0 0.0
2018-Apr-08 07:00N 52°24' E 004°52'0 0.0
2018-Apr-08 06:30N 52°24' E 004°52'0 0.0
2018-Apr-08 06:00N 52°24' E 004°52'0 0.0
2018-Apr-08 05:30N 52°24' E 004°52'0 0.0
2018-Apr-08 05:00N 52°24' E 004°52'0 0.0
2018-Apr-08 04:30N 52°24' E 004°52'0 0.0
2018-Apr-08 04:00N 52°24' E 004°52'0 0.0
2018-Apr-08 03:30N 52°24' E 004°52'0 0.0
2018-Apr-08 03:00N 52°24' E 004°52'0 0.0
2018-Apr-08 02:30N 52°24' E 004°52'0 0.0
2018-Apr-08 02:00N 52°24' E 004°52'0 0.0
2018-Apr-08 01:30N 52°24' E 004°52'0 0.0
2018-Apr-08 01:00N 52°24' E 004°52'0 0.0
2018-Apr-08 00:30N 52°24' E 004°52'0 0.0
2018-Apr-08 00:00N 52°24' E 004°52'0 0.0
2018-Apr-07 23:30N 52°24' E 004°52'0 0.0
2018-Apr-07 23:00N 52°24' E 004°52'0 0.0
2018-Apr-07 22:30N 52°24' E 004°52'0 0.0
2018-Apr-07 22:00N 52°24' E 004°52'0 0.0
2018-Apr-07 21:30N 52°24' E 004°52'0 0.0
2018-Apr-07 21:00N 52°24' E 004°52'0 0.0
2018-Apr-07 20:30N 52°24' E 004°52'0 0.0
2018-Apr-07 20:00N 52°24' E 004°52'0 0.0
2018-Apr-07 19:30N 52°24' E 004°52'0 0.0
2018-Apr-07 19:00N 52°24' E 004°52'0 0.0
2018-Apr-07 18:30N 52°24' E 004°52'0 0.0
2018-Apr-07 18:00N 52°24' E 004°52'0 0.0
2018-Apr-07 17:30N 52°24' E 004°52'0 0.0
2018-Apr-07 17:00N 52°24' E 004°52'0 0.0
2018-Apr-07 16:30N 52°24' E 004°52'0 0.0
2018-Apr-07 16:00N 52°24' E 004°52'0 0.0
2018-Apr-07 15:30N 52°24' E 004°52'0 0.0
2018-Apr-07 15:00N 52°24' E 004°52'0 0.0
2018-Apr-07 14:30N 52°24' E 004°52'0 0.0
2018-Apr-07 14:00N 52°24' E 004°52'0 0.0
2018-Apr-07 13:30N 52°24' E 004°52'0 0.0
2018-Apr-07 13:00N 52°24' E 004°52'0 0.0
2018-Apr-07 12:30N 52°24' E 004°52'0 0.0
2018-Apr-07 12:00N 52°24' E 004°52'0 0.0
2018-Apr-07 11:30N 52°24' E 004°52'0 0.0
2018-Apr-07 11:00N 52°24' E 004°52'0 0.0
2018-Apr-07 10:30N 52°24' E 004°52'0 0.0
2018-Apr-07 10:00N 52°24' E 004°52'0 0.0
2018-Apr-07 09:30N 52°24' E 004°52'0 0.0
2018-Apr-07 09:00N 52°24' E 004°52'0 0.0
2018-Apr-07 08:30N 52°24' E 004°52'0 0.0
2018-Apr-07 08:00N 52°24' E 004°52'0 0.0
2018-Apr-07 07:30N 52°24' E 004°52'0 0.0
2018-Apr-07 07:00N 52°24' E 004°52'0 0.0
2018-Apr-07 06:30N 52°24' E 004°52'0 0.0
2018-Apr-07 06:00N 52°24' E 004°52'0 0.0
2018-Apr-07 05:30N 52°24' E 004°52'0 0.0
2018-Apr-07 05:00N 52°24' E 004°52'0 0.0
2018-Apr-07 04:30N 52°24' E 004°52'0 0.0
2018-Apr-07 04:00N 52°24' E 004°52'0 0.0
2018-Apr-07 03:30N 52°24' E 004°52'0 0.0
2018-Apr-07 03:00N 52°24' E 004°52'0 0.0
2018-Apr-07 02:30N 52°24' E 004°52'0 0.0
2018-Apr-07 02:00N 52°24' E 004°52'0 0.0
2018-Apr-07 01:30N 52°24' E 004°52'0 0.0
2018-Apr-07 01:00N 52°24' E 004°52'0 0.0
2018-Apr-07 00:30N 52°24' E 004°52'0 0.0
2018-Apr-07 00:00N 52°24' E 004°52'0 0.0
2018-Apr-06 23:30N 52°24' E 004°52'0 0.0
2018-Apr-06 23:00N 52°24' E 004°52'0 0.0
2018-Apr-06 22:30N 52°24' E 004°52'0 0.0
2018-Apr-06 22:00N 52°24' E 004°52'0 0.0
2018-Apr-06 21:30N 52°24' E 004°52'0 0.0
2018-Apr-06 21:00N 52°24' E 004°52'0 0.0
2018-Apr-06 20:30N 52°24' E 004°52'0 0.0
2018-Apr-06 20:00N 52°24' E 004°52'  

Dump ship's entire track history